• Join FlightAware (Why Join?)
  • Login
  • US Flag 
03:18PM EDT


 

Airport Tracker/Info


-or-


 

Live Flight TrackerFlight Track Log ✈ NKS927 ✈ 26-Jun-2013 ✈ KORD - KMCO

Flight Track Log - Related Links

Times and Time Zones

All times are in EDT time to prevent confusion due to time zone crossing. See the NKS927 flight status page for this flight to view local times or setup timezone preferences in your user account.

Time Position Orientation Groundspeed Altitude Reporting Facility
EDT Latitude Longitude Course Direction KTS MPH feet Rate Location/Type
03:11PM 41.9780 -87.8950 143° Southeast 22 25  Level FlightAware
03:12PM 41.9750 -87.8950 180° South 24 28 60 Level FlightAware
03:12PM 41.9740 -87.8950 180° South 28 32 120 Level FlightAware
03:13PM 41.9710 -87.8960 194° South 28 32 120 Level FlightAware
03:13PM 41.9690 -87.8940 143° Southeast 30 35 120 Level FlightAware
03:14PM 41.9720 -87.8930 14° North 34 39 120 Level FlightAware
03:14PM 41.9720 -87.8880 90° East 34 39 120 Level FlightAware
03:17PM 41.7087 -87.7359 157° South  Level FlightAware Approximate
03:18PM 41.6011 -87.6729 153° Southeast  Level FlightAware Approximate
03:19PM 41.4960 -87.6028 153° Southeast  Level FlightAware Approximate
03:20PM 41.3840 -87.5585 169° South  Level FlightAware Approximate
03:21PM 41.2677 -87.5363 173° South  Level FlightAware Approximate
03:22PM 41.1522 -87.5107 175° South  Level FlightAware Approximate
03:23PM 41.0360 -87.4898 166° South  Level FlightAware Approximate
03:24PM 40.9221 -87.4518 166° South  Level FlightAware Approximate
03:25PM 40.8074 -87.4185 169° South  Level FlightAware Approximate
03:25PM 41.9690 -87.8810 217° Southwest 26 30  Level FlightAware
03:26PM 41.9610 -87.8910 223° Southwest 140 161 1,860 Level FlightAware
03:26PM 41.9460 -87.9080 220° Southwest 151 174 1,800 3,720 Climbing FlightAware
03:26PM 41.9400 -87.9090 187° South 152 175 2,200 1,500 Climbing FlightAware
03:27PM 41.9240 -87.9020 162° South 186 214 2,600 960 Climbing FlightAware
03:27PM 41.8950 -87.8810 152° Southeast 238 274 3,100 1,200 Climbing FlightAware
03:27PM 41.8800 -87.8700 151° Southeast 258 297 3,600 2,220 Climbing FlightAware
03:28PM 41.8540 -87.8510 151° Southeast 276 318 4,600 3,000 Climbing FlightAware
03:28PM 41.8170 -87.8260 153° Southeast 285 328 6,300 3,300 Climbing FlightAware
03:29PM 41.7850 -87.8060 155° Southeast 294 338 7,700 3,000 Climbing FlightAware
03:29PM 41.7520 -87.7840 154° Southeast 299 344 9,000 2,700 Climbing FlightAware
03:30PM 41.6920 -87.7460 155° Southeast 310 357 11,100 2,700 Climbing FlightAware
03:31PM 41.6390 -87.7110 154° Southeast 316 364 12,900 2,100 Climbing FlightAware
03:31PM 41.5840 -87.6750 154° Southeast 344 396 13,900 1,200 Climbing FlightAware
03:32PM 41.5160 -87.6310 154° Southeast 387 445 14,600 1,380 Climbing FlightAware
03:33PM 41.4480 -87.5870 154° Southeast 398 458 15,900 1,920 Climbing FlightAware
03:33PM 41.3790 -87.5640 166° South 399 459 17,300 1,800 Climbing FlightAware
03:34PM 41.2920 -87.5490 173° South 412 474 18,500 1,560 Climbing FlightAware
03:35PM 41.2210 -87.5370 173° South 421 484 19,500 1,560 Climbing FlightAware
03:35PM 41.1270 -87.5130 169° South 433 498 20,700 1,500 Climbing FlightAware
03:36PM 41.0470 -87.4920 169° South 438 504 21,700 1,560 Climbing FlightAware
03:37PM 40.9620 -87.4690 168° South 440 506 22,900 1,500 Climbing FlightAware
03:38PM 40.8820 -87.4520 171° South 442 509 23,800 1,320 Climbing FlightAware
03:38PM 40.7980 -87.4400 174° South 447 514 24,700 1,260 Climbing FlightAware
03:39PM 40.7100 -87.4160 168° South 454 522 25,600 1,140 Climbing FlightAware
03:40PM 40.6200 -87.3780 162° South 458 527 26,400 960 Climbing FlightAware
03:40PM 40.5410 -87.3450 162° South 468 539 27,000 960 Climbing FlightAware
03:41PM 40.4590 -87.3110 162° South 472 543 27,700 1,140 Climbing FlightAware
03:42PM 40.3680 -87.2730 162° South 472 543 28,600 1,200 Climbing FlightAware
03:42PM 40.2810 -87.2120 152° Southeast 473 544 29,500 1,020 Climbing FlightAware
03:43PM 40.2260 -87.1150 127° Southeast 482 555 30,100 900 Climbing FlightAware
03:44PM 40.1880 -87.0010 114° Southeast 485 558 30,800 1,200 Climbing FlightAware
03:45PM 40.1570 -86.8930 111° Southeast 473 544 31,800 900 Climbing FlightAware
03:45PM 40.1340 -86.7850 106° East 467 537 32,000 120 Climbing FlightAware
03:46PM 40.1180 -86.6630 100° East 469 540 32,000  Level FlightAware
03:47PM 40.1050 -86.5470 98° East 462 532 32,000  Level FlightAware
03:47PM 40.0880 -86.4430 102° East 461 531 32,000  Level FlightAware
03:48PM 40.0540 -86.3230 110° East 463 533 32,000  Level FlightAware
03:49PM 40.0240 -86.2200 111° Southeast 467 537 32,000 240 Level FlightAware
03:49PM 39.9840 -86.1040 114° Southeast 478 550 32,400 1,140 Climbing FlightAware
03:50PM 39.9400 -85.9980 118° Southeast 465 535 33,700 1,380 Climbing FlightAware
03:51PM 39.9030 -85.9090 118° Southeast 465 535 34,300 780 Climbing FlightAware
03:52PM 39.8500 -85.7930 121° Southeast 468 539 34,900 480 Climbing FlightAware
03:52PM 39.8070 -85.6970 120° Southeast 467 537 35,000 60 Climbing FlightAware
03:53PM 39.7600 -85.5900 120° Southeast 472 543 35,000  Level FlightAware
03:54PM 39.7170 -85.4890 119° Southeast 477 549 35,000  Level FlightAware
03:54PM 39.6740 -85.3880 119° Southeast 482 555 35,000  Level FlightAware
03:55PM 39.6200 -85.2690 120° Southeast 486 559 35,000 60 Level FlightAware
03:56PM 39.5700 -85.1720 124° Southeast 486 559 35,100  Climbing FlightAware
03:56PM 39.5190 -85.0720 123° Southeast 486 559 35,000 -120 Descending FlightAware
03:57PM 39.4640 -84.9640 123° Southeast 485 558 35,000  Level FlightAware
03:58PM 39.4150 -84.8820 128° Southeast 483 556 35,000  Level FlightAware
03:59PM 39.3520 -84.7770 128° Southeast 484 557 35,000  Level FlightAware
03:59PM 39.2930 -84.6890 131° Southeast 481 554 35,000  Level FlightAware
04:00PM 39.2300 -84.6090 135° Southeast 480 552 35,000  Level FlightAware
04:01PM 39.1540 -84.5250 139° Southeast 475 547 35,000  Level FlightAware
04:01PM 39.0780 -84.4900 160° South 463 533 35,000  Level FlightAware
04:02PM 38.9780 -84.4740 173° South 458 527 35,000 -120 Level FlightAware
04:03PM 38.8710 -84.4570 173° South 461 531 34,900  Descending FlightAware
04:04PM 38.7810 -84.4410 172° South 463 533 35,000 60 Climbing FlightAware
04:04PM 38.7170 -84.4290 172° South 463 533 35,000  Level FlightAware
04:05PM 38.5620 -84.4070 174° South 468 539 35,000  Level FlightAware
04:06PM 38.4910 -84.3960 173° South 468 539 35,000  Level FlightAware
04:07PM 38.3800 -84.3790 173° South 473 544 35,000  Level FlightAware
04:07PM 38.2970 -84.3660 173° South 473 544 35,000 60 Level FlightAware
04:08PM 38.2020 -84.3510 173° South 472 543 35,100  Climbing FlightAware
04:09PM 38.1160 -84.3370 173° South 470 541 35,000 -120 Descending FlightAware
04:09PM 38.0280 -84.3230 173° South 467 537 35,000  Level FlightAware
04:10PM 37.9260 -84.3070 173° South 465 535 35,000  Level FlightAware
04:11PM 37.8300 -84.2920 173° South 468 539 35,000  Level FlightAware
04:12PM 37.7285 -84.2761 173° South 474 545 35,000  Level FlightAware ADS-B
04:12PM 37.6647 -84.2662 173° South 474 545 35,000  Level FlightAware ADS-B
04:13PM 37.5600 -84.2500 173° South 471 542 35,000  Level FlightAware
04:13PM 37.5348 -84.2460 173° South 472 543 35,000  Level FlightAware ADS-B
04:14PM 37.4577 -84.2339 173° South 469 540 35,000  Level FlightAware ADS-B
04:14PM 37.3925 -84.2239 173° South 469 540 35,000  Level FlightAware ADS-B
04:15PM 37.3277 -84.2138 173° South 467 537 35,000  Level FlightAware ADS-B
04:15PM 37.2583 -84.2031 173° South 466 536 35,000  Level FlightAware ADS-B
04:16PM 37.1913 -84.1928 173° South 466 536 35,000  Level FlightAware ADS-B
04:16PM 37.1255 -84.1827 173° South 464 534 35,000  Level FlightAware ADS-B
04:17PM 37.0611 -84.1727 173° South 463 533 35,000  Level FlightAware ADS-B
04:17PM 36.9975 -84.1630 173° South 461 531 35,000  Level FlightAware ADS-B
04:18PM 36.9318 -84.1529 173° South 460 529 35,000  Level FlightAware ADS-B
04:18PM 36.8649 -84.1427 173° South 459 528 35,000  Level FlightAware ADS-B
04:19PM 36.7813 -84.1299 173° South 459 528 35,000  Level FlightAware ADS-B
04:20PM 36.7161 -84.1200 173° South 461 531 35,000  Level FlightAware ADS-B
04:20PM 36.6512 -84.1102 173° South 461 531 35,000  Level FlightAware ADS-B
04:21PM 36.5883 -84.1006 173° South 460 529 35,000  Level FlightAware ADS-B
04:21PM 36.5243 -84.0910 173° South 460 529 35,000  Level FlightAware ADS-B
04:22PM 36.4554 -84.0804 173° South 460 529 35,000  Level FlightAware ADS-B
04:22PM 36.3909 -84.0706 173° South 459 528 35,000  Level FlightAware ADS-B
04:23PM 36.3274 -84.0610 173° South 460 529 35,000  Level FlightAware ADS-B
04:23PM 36.2626 -84.0514 173° South 460 529 35,000  Level FlightAware ADS-B
04:24PM 36.2215 -84.0471 175° South 460 529 35,000  Level FlightAware ADS-B
04:24PM 36.2103 -84.0471 180° South 460 529 35,000  Level FlightAware ADS-B
04:24PM 36.1957 -84.0481 183° South 460 529 35,000  Level FlightAware ADS-B
04:24PM 36.1287 -84.0561 186° South 457 526 35,000  Level FlightAware ADS-B
04:25PM 36.0656 -84.0634 185° South 455 524 35,000  Level FlightAware ADS-B
04:25PM 35.9989 -84.0712 185° South 453 521 35,000  Level FlightAware ADS-B
04:26PM 35.9675 -84.0745 185° South 453 521 35,000  Level FlightAware ADS-B
04:26PM 35.9041 -84.0760 181° South 453 521 35,000 -120 Level FlightAware ADS-B
04:27PM 35.8404 -84.0761 180° South 455 524 34,900  Descending FlightAware ADS-B
04:27PM 35.7665 -84.0763 180° South 456 525 35,000 60 Climbing FlightAware ADS-B
04:27PM 35.7337 -84.0759 179° South 458 527 35,000  Level FlightAware ADS-B
04:28PM 35.6694 -84.0724 177° South 460 529 35,000  Level FlightAware ADS-B
04:28PM 35.6047 -84.0689 177° South 462 532 35,000 180 Level FlightAware ADS-B
04:29PM 35.5382 -84.0658 178° South 463 533 35,200 660 Climbing FlightAware ADS-B
04:29PM 35.4740 -84.0630 178° South 466 536 35,700 840 Climbing FlightAware ADS-B
04:30PM 35.4219 -84.0614 179° South 465 535 36,000 300 Climbing FlightAware ADS-B
04:30PM 35.3557 -84.0615 180° South 462 532 36,000  Level FlightAware ADS-B
04:31PM 35.2907 -84.0620 180° South 461 531 36,000  Level FlightAware ADS-B
04:31PM 35.2243 -84.0593 178° South 462 532 36,000  Level FlightAware ADS-B
04:32PM 35.1731 -84.0545 176° South 461 531 36,000  Level FlightAware ADS-B
04:32PM 35.1504 -84.0516 174° South 460 529 36,000  Level FlightAware ADS-B
04:32PM 35.1035 -84.0425 171° South 460 529 36,000  Level FlightAware ADS-B
04:33PM 35.0401 -84.0294 170° South 460 529 36,000  Level FlightAware ADS-B
04:33PM 34.9768 -84.0177 171° South 460 529 36,000  Level FlightAware ADS-B
04:34PM 34.9127 -84.0062 172° South 463 533 36,000  Level FlightAware ADS-B
04:34PM 34.8482 -83.9945 172° South 465 535 36,000  Level FlightAware ADS-B
04:35PM 34.7832 -83.9827 172° South 468 539 36,000  Level FlightAware ADS-B
04:35PM 34.7166 -83.9705 171° South 470 541 36,000  Level FlightAware ADS-B
04:36PM 34.5981 -83.9488 171° South 470 541 36,000  Level FlightAware ADS-B
04:37PM 34.5004 -83.9310 171° South 471 542 36,000 60 Level FlightAware ADS-B
04:38PM 34.4337 -83.9189 171° South 468 539 36,100  Climbing FlightAware ADS-B
04:38PM 34.3697 -83.9072 171° South 467 537 36,000 -120 Descending FlightAware ADS-B
04:39PM 34.2820 -83.8910 171° South 467 537 36,000  Level FlightAware ADS-B
04:39PM 34.2162 -83.8791 171° South 468 539 36,000  Level FlightAware ADS-B
04:40PM 34.1488 -83.8670 172° South 469 540 36,000  Level FlightAware ADS-B
04:40PM 34.0816 -83.8548 171° South 471 542 36,000  Level FlightAware ADS-B
04:41PM 33.9933 -83.8387 171° South 473 544 36,000  Level FlightAware ADS-B
04:42PM 33.8180 -83.8070 171° South 477 549 36,000  Level FlightAware
04:43PM 33.7300 -83.7920 172° South 479 551 36,000  Level FlightAware
04:44PM 33.6290 -83.7730 171° South 480 552 36,000  Level FlightAware
04:44PM 33.5390 -83.7570 172° South 481 554 36,000  Level FlightAware
04:45PM 33.4450 -83.7400 171° South 480 552 36,000  Level FlightAware
04:46PM 33.3550 -83.7250 172° South 480 552 36,000  Level FlightAware
04:46PM 33.2720 -83.7100 171° South 481 554 36,000  Level FlightAware
04:47PM 33.1700 -83.6920 172° South 483 556 36,000  Level FlightAware
04:48PM 33.0870 -83.6770 171° South 480 552 36,000  Level FlightAware
04:49PM 32.9880 -83.6600 172° South 477 549 36,000  Level FlightAware
04:49PM 32.8970 -83.6440 172° South 474 545 36,000 -180 Level FlightAware
04:51PM 32.6220 -83.5950 171° South 458 527 35,500 -360 Descending FlightAware
04:52PM 32.5400 -83.5810 172° South 457 526 35,100 -420 Descending FlightAware
04:53PM 32.4490 -83.5650 172° South 460 529 35,000 -120 Descending FlightAware
04:53PM 32.3620 -83.5500 172° South 460 529 35,000  Level FlightAware
04:54PM 32.2680 -83.5340 172° South 456 525 35,000  Level FlightAware
04:55PM 32.1520 -83.5140 172° South 458 527 35,000  Level FlightAware
04:56PM 32.0700 -83.5000 172° South 460 529 35,000  Level FlightAware
04:57PM 31.9770 -83.4840 172° South 463 533 35,000  Level FlightAware
04:57PM 31.9130 -83.4720 171° South 462 532 35,000  Level FlightAware
04:58PM 31.8410 -83.4590 171° South 462 532 35,000  Level FlightAware
04:58PM 31.7750 -83.4470 171° South 462 532 35,000  Level FlightAware
04:59PM 31.6650 -83.4110 164° South 465 535 35,000 -360 Level FlightAware
05:00PM 31.5630 -83.3810 166° South 461 531 34,500 -840 Descending FlightAware
05:00PM 31.4850 -83.3570 165° South 459 528 33,900 -960 Descending FlightAware
05:01PM 31.3940 -83.3300 166° South 454 522 33,200 -960 Descending FlightAware
05:02PM 31.3160 -83.3070 166° South 453 521 32,600 -600 Descending FlightAware
05:03PM 31.2270 -83.2790 165° South 453 521 32,400 -1,020 Descending FlightAware
05:03PM 31.1530 -83.2580 166° South 453 521 31,300 -840 Descending FlightAware
05:04PM 31.0660 -83.2300 165° South 453 521 31,300  Level FlightAware
05:04PM 31.0280 -83.2180 165° South 453 521 31,300  Level FlightAware
05:05PM 30.9450 -83.1930 166° South 453 521 31,300  Level FlightAware
05:06PM 30.8780 -83.1720 165° South 453 521 31,300  Level FlightAware
05:07PM 30.7920 -83.1450 165° South 453 521 31,300  Level FlightAware
05:07PM 30.7130 -83.1200 165° South 453 521 31,300  Level FlightAware
05:08PM 30.6060 -83.0870 165° South 453 521 31,300  Level FlightAware
05:09PM 30.5440 -83.0680 165° South 453 521 31,300  Level FlightAware
05:10PM 30.4630 -83.0430 165° South 453 521 31,300  Level FlightAware
05:11PM 30.3960 -83.0220 165° South 453 521 31,300  Level FlightAware
05:12PM 30.2770 -82.9850 165° South 453 521 31,300  Level FlightAware
05:12PM 30.1950 -82.9590 165° South 453 521 31,300  Level FlightAware
05:13PM 30.1310 -82.9390 165° South 453 521 31,300 -5,460 Level FlightAware
05:15PM 29.7758 -82.8111 165° South 460 529 20,200 -2,280 Descending Jacksonville Center
05:20PM 29.1670 -82.4730 165° South 431 496 15,900 -840 Descending FlightAware
05:21PM 29.0960 -82.4310 153° Southeast 431 496 15,400 -420 Descending FlightAware
05:21PM 29.0240 -82.3890 153° Southeast 428 493 15,300 -900 Descending FlightAware
05:22PM 28.9480 -82.3550 159° South 423 487 14,200 -1,020 Descending FlightAware
05:23PM 28.8710 -82.3070 151° Southeast 427 491 13,900 -240 Descending FlightAware
05:23PM 28.8180 -82.2710 149° Southeast 427 491 13,900 -1,200 Level FlightAware
05:24PM 28.7900 -82.1540 105° East 370 426 12,400 -720 Descending FlightAware
05:26PM 28.7130 -82.0380 127° Southeast 370 426 12,400 -600 Level FlightAware
05:26PM 28.6970 -81.9750 106° East 10,900 -1,260 Descending FlightAware
05:27PM 28.6790 -81.9240 112° Southeast 311 358 10,900 -120 Level FlightAware
05:28PM 28.6550 -81.8520 111° Southeast 304 350 10,800 -720 Descending FlightAware
05:28PM 28.6500 -81.8000 96° East 300 345 10,000 -1,440 Descending FlightAware
05:29PM 28.6530 -81.7510 86° East 296 341 9,300 -1,500 Descending FlightAware
05:29PM 28.6570 -81.7050 84° East 293 337 8,500 -1,500 Descending FlightAware
05:29PM 28.6590 -81.6810 85° East 291 335 8,200 -1,380 Descending FlightAware
05:30PM 28.6620 -81.6440 85° East 287 330 7,600 -1,140 Descending FlightAware
05:30PM 28.6660 -81.5980 84° East 271 312 7,200 -780 Descending FlightAware
05:31PM 28.6690 -81.5640 84° East 255 293 6,900 -360 Descending FlightAware
05:31PM 28.6710 -81.5310 86° East 240 276 6,900 -120 Level FlightAware
05:32PM 28.6750 -81.4900 84° East 236 272 6,800 -720 Descending FlightAware
05:32PM 28.6780 -81.4510 85° East 237 273 6,200 -1,200 Descending FlightAware
05:32PM 28.6790 -81.4400 84° East 236 272 6,000 -1,080 Descending FlightAware
05:33PM 28.6740 -81.4040 99° East 226 260 5,500 -900 Descending FlightAware
05:33PM 28.6670 -81.3940 129° Southeast 216 249 5,400 -600 Descending FlightAware
05:34PM 28.6440 -81.3740 143° Southeast 207 238 5,100 -900 Descending FlightAware
05:34PM 28.6230 -81.3540 140° Southeast 186 214 4,500 -1,740 Descending FlightAware
05:35PM 28.6020 -81.3350 142° Southeast 172 198 3,400 -1,980 Descending FlightAware
05:35PM 28.5850 -81.3290 163° South 167 192 2,700 -1,560 Descending FlightAware
05:35PM 28.5650 -81.3280 177° South 160 184 2,100 -1,020 Descending FlightAware
05:36PM 28.5450 -81.3280 180° South 128 147 1,800 -720 Descending FlightAware
05:36PM 28.5280 -81.3280 180° South 133 153 1,400 -720 Descending FlightAware
05:37PM 28.5190 -81.3280 180° South 133 153 1,300 -600 Descending FlightAware
05:37PM 28.5020 -81.3280 180° South 133 153 1,000 -720 Descending FlightAware
05:38PM 28.4750 -81.3270 178° South 133 153 500 -720 Descending FlightAware
05:38PM 28.4490 -81.3270 180° South 133 153 -720 Descending FlightAware
05:39PM 28.4270 -81.3270 180° South 115 132  Level FlightAware
05:39PM 28.4310 -81.3260 12° North 21 24  Level FlightAware
05:40PM 28.4310 -81.3240 90° East 4 5  Level FlightAware
05:41PM 28.4310 -81.3220 90° East 13 15  Level FlightAware
05:42PM 28.4300 -81.3190 111° Southeast 17 20  Level FlightAware
05:42PM 28.4290 -81.3180 139° Southeast 19 22  Level FlightAware
05:42PM 28.4270 -81.3180 180° South 20 23  Level FlightAware
05:43PM 28.4240 -81.3180 180° South 17 20  Level FlightAware
05:43PM 28.4240 -81.3170 90° East 14 16  Level FlightAware
05:44PM 28.4240 -81.3150 90° East 17 20  Level FlightAware
05:46PM 28.4294 -81.3090 148° Southeast  Level Estimated
05:47PM 28.4294 -81.3090 148° Southeast  Level Estimated
05:47PM 28.4280 -81.3130 148° Southeast  Level FlightAware
05:49PM 28.4294 -81.3090 148° Southeast  Level Estimated